Red House, Nevada
Current Conditions -  °F | °C
As of 10:56 PM on Saturday 22 Nov 2014 (Local Time) from KWMC Reporting Station
Few Clouds Few Clouds  
Wind Chill: 28°   Ceiling: Unl
Heat Index: 35°   Visibility: 10mi
Dew Point: 25°   Wind: 9mph
Humidity: 67%   Direction: 290°WNW
Pressure: 30.2"   Gusts: NA
Location:  41.013°N, 117.293°W
Report Text: KWMC 230656Z AUTO 29008KT 10SM FEW050 02/M04 A3020 RMK AO2 SLP221 T00171039
Loading
Personal Weather Stations






























Interactive Weather Map New forecast layout! Learn more

10-Day Weather Forecast

Advertisements
Track Severe Weather on mobile